Time;durP1;ratioP1;P1;durP2;ratioP2;P2;SDS_P1;SDS_P2;PMS_P1;PMS_P2;Temp;Humidity;BMP_temperature;BMP_pressure;BME280_temperature;BME280_humidity;BME280_pressure;Samples;Min_cycle;Max_cycle;Signal;HPM_P1;HPM_P2
2022/07/10 00:00:12;;;;;;;7.20;5.50;;;;;;;18.16;95.21;99183.02;1703581;83;21101;-72
2022/07/10 00:02:42;;;;;;;7.70;7.00;;;;;;;18.18;95.20;99181.58;1703656;82;20936;-70
2022/07/10 00:05:10;;;;;;;7.83;6.15;;;;;;;18.19;95.10;99172.86;1702393;82;21079;-73
2022/07/10 00:07:38;;;;;;;9.93;6.37;;;;;;;18.19;95.16;99169.58;1686781;84;20955;-72
2022/07/10 00:10:07;;;;;;;7.87;7.00;;;;;;;18.18;95.33;99174.77;1686638;84;22160;-72
2022/07/10 00:12:34;;;;;;;7.00;5.58;;;;;;;18.18;95.46;99172.61;1686978;84;21049;-72
2022/07/10 00:15:04;;;;;;;9.23;6.15;;;;;;;18.19;95.54;99172.86;1704736;83;21107;-75
2022/07/10 00:17:32;;;;;;;6.90;6.20;;;;;;;18.21;95.53;99176.89;1656374;85;21055;-76
2022/07/10 00:20:00;;;;;;;7.05;5.60;;;;;;;18.24;95.56;99179.53;1658984;85;21151;-72
2022/07/10 00:22:28;;;;;;;8.15;6.42;;;;;;;18.32;95.49;99172.55;1686700;83;20966;-72
2022/07/10 00:24:55;;;;;;;7.55;6.62;;;;;;;18.35;95.21;99171.34;1698939;84;21501;-71
2022/07/10 00:27:21;;;;;;;7.60;7.00;;;;;;;18.42;95.01;99169.52;1688035;84;21081;-71
2022/07/10 00:29:49;;;;;;;7.92;6.83;;;;;;;18.42;94.69;99164.07;1703411;83;21049;-71
2022/07/10 00:32:17;;;;;;;9.68;6.30;;;;;;;18.43;94.54;99166.48;1688067;85;21331;-72
2022/07/10 00:34:44;;;;;;;7.83;6.60;;;;;;;18.38;94.36;99166.62;1687954;85;20927;-71
2022/07/10 00:37:11;;;;;;;11.08;6.65;;;;;;;18.37;94.47;99169.69;1685879;85;21121;-70
2022/07/10 00:39:37;;;;;;;6.83;6.22;;;;;;;18.35;94.65;99167.27;1703256;83;21524;-70
2022/07/10 00:42:15;;;;;;;9.18;5.72;;;;;;;18.30;95.00;99162.77;1687664;84;21075;-71
2022/07/10 00:44:42;;;;;;;6.78;5.65;;;;;;;18.26;95.32;99163.14;1703539;82;22182;-72
2022/07/10 00:47:10;;;;;;;8.18;6.42;;;;;;;18.21;95.45;99161.92;1687812;85;21025;-76
2022/07/10 00:49:39;;;;;;;10.10;6.90;;;;;;;18.23;95.54;99163.75;1687867;85;21033;-73
2022/07/10 00:52:12;;;;;;;12.37;6.33;;;;;;;18.28;95.42;99157.37;1698300;84;21089;-72
2022/07/10 00:54:45;;;;;;;10.85;7.10;;;;;;;18.29;95.13;99155.70;1687183;85;21038;-73
2022/07/10 00:57:14;;;;;;;12.58;7.75;;;;;;;18.25;94.84;99150.64;1677635;83;21134;-71
2022/07/10 00:59:41;;;;;;;10.93;7.28;;;;;;;18.24;94.89;99147.67;1712026;82;21023;-75
2022/07/10 01:02:08;;;;;;;8.38;6.55;;;;;;;18.29;95.08;99144.81;1686445;83;22157;-76
2022/07/10 01:04:34;;;;;;;8.33;5.83;;;;;;;18.30;94.70;99142.34;1687413;84;21062;-72
2022/07/10 01:07:03;;;;;;;8.18;5.47;;;;;;;18.26;94.56;99136.48;1711090;83;21060;-71
2022/07/10 01:09:30;;;;;;;8.05;6.55;;;;;;;18.18;94.46;99133.14;1687544;84;21204;-78
2022/07/10 01:12:01;;;;;;;7.78;7.05;;;;;;;18.07;94.54;99127.74;1704911;83;20997;-76
2022/07/10 01:14:32;;;;;;;11.43;6.40;;;;;;;17.92;95.03;99126.78;1706249;83;21034;-76
2022/07/10 01:16:58;;;;;;;9.85;6.65;;;;;;;17.95;96.48;99124.23;1660472;85;21009;-77
2022/07/10 01:19:25;;;;;;;8.78;7.87;;;;;;;18.02;96.94;99123.23;1700659;84;21962;-79
2022/07/10 01:21:52;;;;;;;6.97;6.40;;;;;;;18.07;96.98;99125.02;1665332;84;22116;-78
2022/07/10 01:24:19;;;;;;;7.45;6.67;;;;;;;18.12;97.08;99120.25;1659355;85;21024;-78
2022/07/10 01:26:46;;;;;;;9.73;7.40;;;;;;;18.16;97.01;99121.78;1666022;85;20997;-77
2022/07/10 01:29:13;;;;;;;7.97;7.10;;;;;;;18.19;96.72;99117.86;1689088;85;21018;-77
2022/07/10 01:31:40;;;;;;;6.75;6.10;;;;;;;18.21;96.49;99118.37;1677457;85;21036;-76
2022/07/10 01:34:11;;;;;;;10.78;6.00;;;;;;;18.22;96.29;99113.14;1695534;84;21239;-80
2022/07/10 01:36:38;;;;;;;6.45;5.83;;;;;;;18.24;95.99;99116.36;1697818;82;20981;-79
2022/07/10 01:39:06;;;;;;;6.35;5.75;;;;;;;18.21;95.64;99115.64;1688063;85;21557;-78
2022/07/10 01:41:33;;;;;;;7.45;5.75;;;;;;;18.17;95.55;99113.86;1703522;82;21052;-80
2022/07/10 01:44:00;;;;;;;8.08;7.05;;;;;;;18.10;95.65;99112.94;1688203;84;21033;-78
2022/07/10 01:46:26;;;;;;;6.85;5.65;;;;;;;18.04;95.94;99113.38;1688023;84;21243;-78
2022/07/10 01:48:53;;;;;;;6.05;5.45;;;;;;;17.99;96.30;99100.72;1687859;84;21001;-77
2022/07/10 01:51:20;;;;;;;7.83;6.15;;;;;;;17.93;96.85;99091.10;1687477;85;21014;-78
2022/07/10 01:53:48;;;;;;;9.60;5.92;;;;;;;17.89;97.30;99091.45;1694918;84;21013;-80
2022/07/10 01:56:16;;;;;;;7.10;6.22;;;;;;;17.86;97.54;99093.45;1674952;83;21092;-79
2022/07/10 01:58:43;;;;;;;7.75;6.30;;;;;;;17.82;97.81;99095.20;1692837;84;21869;-82
2022/07/10 02:01:10;;;;;;;7.97;6.95;;;;;;;17.78;98.31;99096.94;1705066;84;20997;-83
2022/07/10 02:06:22;;;;;;;6.30;5.70;;;;;;;17.67;98.85;99099.11;1705239;84;21104;-81
2022/07/10 02:08:49;;;;;;;6.78;6.08;;;;;;;17.61;99.16;99089.46;1706058;83;20995;-76
2022/07/10 02:11:16;;;;;;;8.98;6.15;;;;;;;17.58;99.50;99096.86;1692465;84;21258;-77
2022/07/10 02:13:43;;;;;;;9.05;5.87;;;;;;;17.54;99.94;99094.52;1708874;83;20904;-76
2022/07/10 02:16:10;;;;;;;8.00;6.40;;;;;;;17.51;100.00;99098.39;1709213;84;21008;-78
2022/07/10 02:18:38;;;;;;;6.62;5.83;;;;;;;17.48;100.00;99099.02;1697009;84;20996;-77
2022/07/10 02:21:05;;;;;;;7.08;6.10;;;;;;;17.46;100.00;99091.75;1710496;83;21060;-78
2022/07/10 02:23:33;;;;;;;6.40;5.55;;;;;;;17.43;100.00;99102.12;1710303;83;21467;-76
2022/07/10 02:26:00;;;;;;;6.42;5.78;;;;;;;17.42;100.00;99095.07;1710643;82;21505;-77
2022/07/10 02:28:29;;;;;;;6.80;6.08;;;;;;;17.44;100.00;99092.05;1710035;83;20979;-78
2022/07/10 02:30:56;;;;;;;7.90;6.08;;;;;;;17.44;100.00;99103.73;1697009;83;21021;-77
2022/07/10 02:33:23;;;;;;;10.68;7.15;;;;;;;17.48;100.00;99101.74;1710408;83;21086;-77
2022/07/10 02:35:50;;;;;;;6.67;5.50;;;;;;;17.48;100.00;99102.55;1710338;83;21552;-77
2022/07/10 02:38:16;;;;;;;7.83;4.75;;;;;;;17.48;100.00;99091.67;1710502;83;21333;-76
2022/07/10 02:40:44;;;;;;;6.55;5.95;;;;;;;17.46;100.00;99091.75;1710198;82;21070;-77
2022/07/10 02:43:10;;;;;;;6.83;5.75;;;;;;;17.43;100.00;99087.72;1710512;83;21004;-78
2022/07/10 02:45:37;;;;;;;5.35;4.60;;;;;;;17.39;100.00;99089.45;1696482;83;21077;-78
2022/07/10 02:48:05;;;;;;;5.65;4.70;;;;;;;17.33;100.00;99081.97;1705291;84;21546;-78
2022/07/10 02:50:31;;;;;;;5.50;5.00;;;;;;;17.29;100.00;99087.78;1688118;84;21077;-78
2022/07/10 02:52:59;;;;;;;6.28;4.20;;;;;;;17.26;100.00;99080.81;1710529;83;21059;-79
2022/07/10 02:55:25;;;;;;;6.03;4.45;;;;;;;17.24;100.00;99075.67;1710348;82;21626;-78
2022/07/10 02:57:54;;;;;;;4.95;4.47;;;;;;;17.23;100.00;99074.06;1708709;82;21115;-79
2022/07/10 03:00:22;;;;;;;5.55;5.03;;;;;;;17.24;100.00;99079.75;1683111;84;21166;-79
2022/07/10 03:02:50;;;;;;;5.42;4.50;;;;;;;17.26;100.00;99080.26;1684423;84;20940;-79
2022/07/10 03:05:18;;;;;;;5.05;4.65;;;;;;;17.29;100.00;99076.91;1697024;83;21097;-80
2022/07/10 03:07:45;;;;;;;4.37;3.85;;;;;;;17.31;100.00;99079.33;1698222;84;21100;-80
2022/07/10 03:10:12;;;;;;;7.87;3.87;;;;;;;17.34;100.00;99077.34;1668377;86;21063;-78
2022/07/10 03:12:41;;;;;;;4.20;3.80;;;;;;;17.38;100.00;99087.84;1695475;84;20958;-79
2022/07/10 03:15:10;;;;;;;5.15;4.62;;;;;;;17.38;100.00;99075.61;1674461;84;21068;-79
2022/07/10 03:17:37;;;;;;;5.45;3.65;;;;;;;17.36;100.00;99074.55;1684232;83;21516;-78
2022/07/10 03:20:06;;;;;;;5.05;3.42;;;;;;;17.34;99.80;99069.99;1696249;83;21080;-79
2022/07/10 03:22:33;;;;;;;6.33;4.42;;;;;;;17.36;99.69;99075.12;1683516;84;21077;-80
2022/07/10 03:25:00;;;;;;;3.72;3.40;;;;;;;17.36;99.51;99069.70;1697459;84;21136;-79
2022/07/10 03:27:28;;;;;;;10.48;5.47;;;;;;;17.38;99.28;99081.05;1698899;84;21008;-81
2022/07/10 03:29:54;;;;;;;7.30;3.95;;;;;;;17.39;99.00;99074.50;1698696;84;21027;-81
2022/07/10 03:32:21;;;;;;;3.92;3.62;;;;;;;17.40;98.87;99079.64;1698909;84;21034;-79
2022/07/10 03:34:48;;;;;;;3.47;3.17;;;;;;;17.43;98.54;99079.56;1698639;83;21536;-82
2022/07/10 03:37:16;;;;;;;3.70;3.40;;;;;;;17.43;98.33;99083.09;1697523;84;21217;-81
2022/07/10 03:39:43;;;;;;;3.33;3.10;;;;;;;17.43;98.14;99087.72;1680145;84;21513;-79
2022/07/10 03:42:10;;;;;;;3.92;3.55;;;;;;;17.44;98.00;99084.70;1669078;85;21013;-80
2022/07/10 03:44:37;;;;;;;3.92;3.00;;;;;;;17.44;97.84;99092.05;1695140;84;21513;-79
2022/07/10 03:47:05;;;;;;;4.22;2.67;;;;;;;17.48;97.74;99081.35;1699071;84;22354;-80
2022/07/10 03:49:32;;;;;;;3.67;3.25;;;;;;;17.51;97.41;99086.16;1700608;83;21235;-81
2022/07/10 03:52:01;;;;;;;3.72;3.22;;;;;;;17.54;96.99;99078.20;1696503;84;21523;-80
2022/07/10 03:54:30;;;;;;;3.22;3.02;;;;;;;17.57;96.65;99079.48;1673539;84;21004;-79
2022/07/10 03:59:44;;;;;;;3.02;2.83;;;;;;;17.67;95.77;99083.34;1676457;85;21049;-78
2022/07/10 04:02:11;;;;;;;3.15;2.85;;;;;;;17.71;95.22;99091.12;1677426;84;21021;-76
2022/07/10 04:04:38;;;;;;;3.83;3.47;;;;;;;17.72;94.50;99084.58;1699189;83;21024;-75
2022/07/10 04:07:05;;;;;;;2.87;2.67;;;;;;;17.75;94.27;99088.02;1673385;85;20992;-76
2022/07/10 04:09:32;;;;;;;2.60;2.40;;;;;;;17.77;93.86;99087.16;1673812;85;21118;-75
2022/07/10 04:11:59;;;;;;;5.37;2.80;;;;;;;17.79;93.53;99083.59;1703501;83;20998;-76
2022/07/10 04:14:26;;;;;;;5.35;2.95;;;;;;;17.83;93.55;99086.73;1688183;84;21207;-76
2022/07/10 04:16:53;;;;;;;2.80;2.60;;;;;;;17.90;93.15;99079.47;1703457;83;20995;-74
2022/07/10 04:19:21;;;;;;;3.02;2.83;;;;;;;17.93;92.42;99084.30;1703609;82;21512;-75
2022/07/10 04:21:48;;;;;;;4.08;3.02;;;;;;;17.95;92.10;99073.89;1671400;85;21041;-75
2022/07/10 04:24:15;;;;;;;4.03;2.80;;;;;;;17.98;91.88;99074.64;1700819;83;21115;-76
2022/07/10 04:26:42;;;;;;;4.55;2.85;;;;;;;18.01;91.77;99078.09;1700535;83;21092;-76
2022/07/10 04:29:09;;;;;;;3.65;3.35;;;;;;;18.05;91.63;99078.25;1681490;83;20987;-80
2022/07/10 04:31:37;;;;;;;3.45;3.15;;;;;;;18.09;91.36;99073.23;1646680;86;20988;-78
2022/07/10 04:34:04;;;;;;;3.12;2.87;;;;;;;18.14;90.84;99083.98;1678227;84;21092;-77
2022/07/10 04:36:31;;;;;;;6.03;2.80;;;;;;;18.16;90.10;99089.11;1686853;83;21036;-78
2022/07/10 04:38:58;;;;;;;2.75;2.55;;;;;;;18.15;89.87;99084.23;1688101;85;21981;-78
2022/07/10 04:41:25;;;;;;;2.83;2.50;;;;;;;18.19;89.74;99081.67;1688150;84;20950;-79
2022/07/10 04:43:52;;;;;;;3.45;3.12;;;;;;;18.24;89.66;99084.25;1687989;84;21069;-77
2022/07/10 04:46:21;;;;;;;2.77;2.58;;;;;;;18.30;89.49;99078.92;1689120;83;21054;-78
2022/07/10 04:48:48;;;;;;;3.45;3.15;;;;;;;18.39;89.36;99086.55;1688013;84;21038;-78
2022/07/10 04:51:14;;;;;;;4.97;3.15;;;;;;;18.44;88.24;99081.52;1703532;82;21204;-78
2022/07/10 04:53:41;;;;;;;4.45;3.50;;;;;;;18.49;88.32;99089.55;1688035;84;21613;-78
2022/07/10 04:56:09;;;;;;;4.92;3.00;;;;;;;18.53;88.35;99086.42;1700996;83;21011;-78
2022/07/10 04:58:36;;;;;;;3.55;3.05;;;;;;;18.57;88.11;99090.95;1704402;83;21205;-77
2022/07/10 05:01:05;;;;;;;3.22;3.02;;;;;;;18.62;87.89;99091.36;1710447;82;21051;-80
2022/07/10 05:03:33;;;;;;;2.95;2.75;;;;;;;18.68;87.23;99091.46;1696761;83;21355;-77
2022/07/10 05:06:00;;;;;;;3.60;3.30;;;;;;;18.72;86.46;99094.59;1692976;83;20963;-78
2022/07/10 05:08:27;;;;;;;3.47;3.15;;;;;;;18.78;86.27;99098.53;1697425;84;21084;-79
2022/07/10 05:10:55;;;;;;;5.33;3.08;;;;;;;18.81;85.60;99105.50;1697252;84;21100;-78
2022/07/10 05:13:22;;;;;;;3.40;3.10;;;;;;;18.83;85.40;99106.00;1697056;84;21045;-80
2022/07/10 05:15:49;;;;;;;4.25;3.70;;;;;;;18.84;85.23;99100.80;1682909;84;21163;-79
2022/07/10 05:18:16;;;;;;;8.93;3.25;;;;;;;18.87;84.87;99096.62;1697451;83;20989;-77
2022/07/10 05:20:44;;;;;;;13.60;6.92;;;;;;;18.91;84.96;99095.66;1709958;82;21003;-76
2022/07/10 05:23:11;;;;;;;4.17;3.77;;;;;;;18.98;85.01;99094.64;1697094;84;21071;-77
2022/07/10 05:25:41;;;;;;;3.65;3.40;;;;;;;19.05;84.78;99097.68;1706628;83;21103;-81
2022/07/10 05:28:08;;;;;;;6.12;3.65;;;;;;;19.09;84.15;99095.91;1710555;83;21461;-77
2022/07/10 05:30:39;;;;;;;3.98;3.58;;;;;;;19.13;84.08;99090.64;1710346;83;20995;-78
2022/07/10 05:33:06;;;;;;;3.98;3.67;;;;;;;19.18;84.06;99087.76;1710792;83;20971;-77
2022/07/10 05:35:32;;;;;;;3.80;3.42;;;;;;;19.24;84.25;99078.83;1711544;82;21036;-80
2022/07/10 05:37:59;;;;;;;4.45;4.05;;;;;;;19.31;84.53;99082.69;1697605;84;21069;-77
2022/07/10 05:40:27;;;;;;;10.90;4.53;;;;;;;19.41;84.54;99085.09;1709084;82;21200;-79
2022/07/10 05:42:54;;;;;;;5.92;3.67;;;;;;;19.52;84.08;99086.93;1697492;84;20949;-78
2022/07/10 05:45:22;;;;;;;4.33;4.00;;;;;;;19.67;83.47;99071.98;1710751;83;20988;-78
2022/07/10 05:47:48;;;;;;;5.35;3.98;;;;;;;19.67;83.47;99071.98;1710579;83;21055;-78
2022/07/10 05:50:16;;;;;;;4.10;3.72;;;;;;;19.74;83.36;99080.48;1710650;82;21043;-79
2022/07/10 05:52:42;;;;;;;5.60;4.37;;;;;;;19.77;83.13;99076.53;1697293;84;21202;-76
2022/07/10 05:55:10;;;;;;;4.20;3.80;;;;;;;19.86;82.75;99080.03;1706405;82;20992;-79
2022/07/10 05:57:37;;;;;;;4.35;3.95;;;;;;;19.97;81.18;99079.93;1693621;82;21734;-81
2022/07/10 06:00:10;;;;;;;5.45;4.20;;;;;;;20.03;80.19;99077.27;1702932;82;21206;-79
2022/07/10 06:02:41;;;;;;;3.98;3.67;;;;;;;20.09;80.41;99078.45;1696163;84;21073;-81
2022/07/10 06:05:09;;;;;;;4.45;4.05;;;;;;;20.14;80.43;99079.64;1696176;84;21035;-79
2022/07/10 06:07:36;;;;;;;3.83;3.52;;;;;;;20.17;80.47;99076.24;1683083;84;21055;-78
2022/07/10 06:10:05;;;;;;;3.37;3.08;;;;;;;20.24;80.71;99072.45;1697532;84;20992;-77
2022/07/10 06:12:33;;;;;;;4.90;4.15;;;;;;;20.31;79.81;99083.12;1697689;84;21061;-79
2022/07/10 06:15:00;;;;;;;3.87;3.40;;;;;;;20.37;79.58;99083.73;1697169;83;21014;-76
2022/07/10 06:17:27;;;;;;;4.20;3.90;;;;;;;20.43;78.43;99072.87;1694013;83;21831;-77
2022/07/10 06:19:54;;;;;;;3.47;3.17;;;;;;;20.45;78.16;99075.48;1695881;83;21028;-78
2022/07/10 06:22:32;;;;;;;6.22;4.08;;;;;;;20.48;78.09;99068.55;1669148;86;21025;-78
2022/07/10 06:25:05;;;;;;;8.95;4.03;;;;;;;20.53;78.37;99073.05;1670837;85;20965;-75
2022/07/10 06:27:32;;;;;;;3.52;3.22;;;;;;;20.53;76.13;99064.27;1671087;85;21053;-77
2022/07/10 06:30:00;;;;;;;5.17;3.70;;;;;;;20.57;75.69;99072.06;1670616;85;21262;-79
2022/07/10 06:32:28;;;;;;;3.95;3.50;;;;;;;20.57;74.49;99068.53;1670690;84;21039;-80
2022/07/10 06:34:55;;;;;;;3.85;3.55;;;;;;;20.56;74.35;99058.72;1699841;83;21017;-77
2022/07/10 06:37:22;;;;;;;3.95;3.62;;;;;;;20.58;74.44;99068.73;1698782;83;21052;-76
2022/07/10 06:39:51;;;;;;;9.48;4.17;;;;;;;20.62;73.85;99058.77;1698029;84;20985;-75
2022/07/10 06:42:17;;;;;;;4.47;4.08;;;;;;;20.58;73.29;99061.34;1698487;84;21259;-78
2022/07/10 06:44:46;;;;;;;5.75;4.25;;;;;;;20.55;72.95;99062.02;1698585;83;20999;-76
2022/07/10 06:50:07;;;;;;;4.17;3.27;;;;;;;20.50;74.09;99053.20;1699106;83;20948;-78
2022/07/10 06:52:34;;;;;;;7.33;3.40;;;;;;;20.55;73.07;99058.48;1699358;83;21001;-79
2022/07/10 06:55:02;;;;;;;4.78;3.33;;;;;;;20.57;72.25;99052.94;1698890;84;21731;-78
2022/07/10 06:57:31;;;;;;;3.60;3.30;;;;;;;20.65;72.50;99052.07;1698718;84;21020;-80
2022/07/10 06:59:57;;;;;;;3.55;2.95;;;;;;;20.71;72.40;99055.41;1698013;83;21031;-76
2022/07/10 07:02:25;;;;;;;3.75;2.85;;;;;;;20.76;72.71;99048.39;1698720;83;22001;-78
2022/07/10 07:04:52;;;;;;;3.37;3.17;;;;;;;20.81;73.62;99060.49;1699034;84;20996;-79
2022/07/10 07:07:19;;;;;;;2.92;2.72;;;;;;;20.87;73.34;99061.30;1698802;83;22249;-79
2022/07/10 07:09:49;;;;;;;4.20;2.95;;;;;;;20.94;72.47;99058.05;1687746;83;20940;-81
2022/07/10 07:12:16;;;;;;;6.00;3.58;;;;;;;21.00;72.01;99052.62;1698960;84;20992;-81
2022/07/10 07:14:44;;;;;;;7.20;3.22;;;;;;;21.06;71.99;99045.80;1700088;83;20984;-80
2022/07/10 07:17:13;;;;;;;3.02;2.60;;;;;;;21.13;71.02;99039.80;1699125;84;21032;-83
2022/07/10 07:25:13;;;;;;;3.87;3.37;;;;;;;21.23;70.75;99042.16;1697461;84;21021;-76
2022/07/10 07:27:40;;;;;;;5.72;3.70;;;;;;;21.30;70.44;99053.34;1695689;84;21491;-79
2022/07/10 07:30:14;;;;;;;3.33;2.92;;;;;;;21.35;69.48;99049.03;1698855;83;21901;-79
2022/07/10 07:32:42;;;;;;;6.28;5.58;;;;;;;21.42;69.34;99058.88;1698814;83;21247;-79
2022/07/10 07:35:09;;;;;;;4.75;3.95;;;;;;;21.53;69.21;99049.11;1696356;83;21514;-79
2022/07/10 07:37:49;;;;;;;5.92;3.12;;;;;;;21.67;68.58;99045.50;1699160;83;21020;-79
2022/07/10 07:40:20;;;;;;;3.75;3.45;;;;;;;21.80;68.12;99049.62;1669009;85;21204;-77
2022/07/10 07:42:47;;;;;;;4.85;3.83;;;;;;;21.90;68.08;99046.44;1668812;85;21051;-81
2022/07/10 07:45:14;;;;;;;3.22;2.80;;;;;;;21.96;66.61;99042.38;1697180;84;21156;-77
2022/07/10 07:47:53;;;;;;;5.58;4.05;;;;;;;22.05;65.70;99046.61;1696164;84;20898;-77
2022/07/10 07:50:28;;;;;;;3.92;2.85;;;;;;;22.12;64.56;99059.16;1696191;84;21081;-78
2022/07/10 07:52:55;;;;;;;3.45;3.15;;;;;;;22.13;64.09;99050.38;1682653;84;21013;-77
2022/07/10 07:55:22;;;;;;;4.00;2.77;;;;;;;22.21;64.74;99049.45;1693410;84;21016;-77
2022/07/10 07:57:51;;;;;;;2.98;2.77;;;;;;;22.25;63.35;99042.17;1668997;86;21096;-75
2022/07/10 08:00:18;;;;;;;5.47;2.83;;;;;;;22.28;63.19;99049.70;1667665;83;21663;-79
2022/07/10 08:02:45;;;;;;;10.63;2.95;;;;;;;22.36;63.79;99049.34;1693770;83;21036;-77
2022/07/10 08:05:12;;;;;;;3.47;3.17;;;;;;;22.39;63.83;99059.06;1683781;83;21580;-79
2022/07/10 08:07:41;;;;;;;3.67;2.67;;;;;;;22.41;64.01;99046.38;1698813;84;21059;-81
2022/07/10 08:10:10;;;;;;;2.87;2.67;;;;;;;22.40;63.20;99046.14;1677613;84;21103;-77
2022/07/10 08:12:38;;;;;;;5.92;2.77;;;;;;;22.32;62.37;99047.86;1673405;85;20984;-79
2022/07/10 08:15:08;;;;;;;3.08;2.62;;;;;;;22.31;62.32;99040.78;1679691;83;21036;-78
2022/07/10 08:17:35;;;;;;;4.70;2.80;;;;;;;22.34;61.01;99050.27;1682133;84;21092;-79
2022/07/10 08:20:05;;;;;;;5.08;2.75;;;;;;;22.36;60.73;99052.88;1698812;84;21009;-80
2022/07/10 08:22:33;;;;;;;3.00;2.80;;;;;;;22.36;62.82;99047.41;1693454;84;21117;-80
2022/07/10 08:25:00;;;;;;;3.67;3.42;;;;;;;22.33;63.61;99045.36;1663435;85;21538;-79
2022/07/10 08:27:28;;;;;;;2.95;2.70;;;;;;;22.36;64.02;99046.59;1696589;84;21043;-84
2022/07/10 08:29:54;;;;;;;6.70;2.95;;;;;;;22.39;63.27;99050.84;1668287;86;21231;-80
2022/07/10 08:32:22;;;;;;;3.37;2.85;;;;;;;22.41;63.45;99040.32;1695966;84;21123;-80
2022/07/10 08:34:49;;;;;;;3.22;2.92;;;;;;;22.46;63.56;99037.35;1698813;83;21208;-82
2022/07/10 08:37:16;;;;;;;4.85;2.98;;;;;;;22.53;63.30;99023.88;1694829;83;21052;-74
2022/07/10 08:39:43;;;;;;;3.90;3.50;;;;;;;22.54;62.45;99021.94;1695900;84;21531;-74
2022/07/10 08:42:10;;;;;;;5.78;3.17;;;;;;;22.58;62.76;99026.39;1695814;84;21582;-74
2022/07/10 08:44:37;;;;;;;3.42;3.12;;;;;;;22.65;62.07;99034.58;1696352;84;21002;-80
2022/07/10 08:47:05;;;;;;;3.30;3.05;;;;;;;22.69;62.66;99034.91;1685154;83;21066;-76
2022/07/10 08:49:35;;;;;;;5.40;4.80;;;;;;;22.76;62.58;99035.73;1694466;83;20980;-76
2022/07/10 08:52:08;;;;;;;5.83;3.75;;;;;;;22.80;60.56;99032.52;1676052;84;21034;-76
2022/07/10 08:54:37;;;;;;;5.37;2.42;;;;;;;22.84;60.29;99033.42;1669265;86;21061;-77
2022/07/10 08:57:04;;;;;;;3.40;3.08;;;;;;;22.87;60.10;99030.81;1670807;85;21093;-77
2022/07/10 08:59:31;;;;;;;3.22;2.92;;;;;;;22.88;60.17;99035.13;1691363;83;21233;-76
2022/07/10 09:01:58;;;;;;;4.83;2.87;;;;;;;22.93;60.08;99025.85;1677342;84;21043;-76
2022/07/10 09:04:26;;;;;;;4.80;3.40;;;;;;;23.01;60.11;99038.08;1652980;86;21080;-77
2022/07/10 09:06:54;;;;;;;2.25;2.15;;;;;;;23.07;59.95;99029.60;1678410;84;21033;-76
2022/07/10 09:09:21;;;;;;;2.95;2.75;;;;;;;23.11;59.80;99023.64;1710582;83;22276;-76
2022/07/10 09:11:48;;;;;;;3.65;3.30;;;;;;;23.15;59.17;99025.34;1712717;83;21097;-77
2022/07/10 09:14:16;;;;;;;5.90;3.50;;;;;;;23.21;59.27;99033.55;1710154;83;20971;-75
2022/07/10 09:16:45;;;;;;;3.00;2.80;;;;;;;23.30;59.73;99031.45;1710358;82;21018;-75
2022/07/10 09:19:24;;;;;;;3.02;2.83;;;;;;;23.40;60.72;99029.55;1692046;84;21099;-76
2022/07/10 09:22:02;;;;;;;4.58;2.87;;;;;;;23.43;58.42;99020.63;1704699;83;21080;-74
2022/07/10 09:24:37;;;;;;;4.97;3.22;;;;;;;23.43;58.67;99020.63;1706905;83;21097;-77
2022/07/10 09:27:05;;;;;;;14.85;4.12;;;;;;;23.46;58.27;99015.83;1705162;83;20968;-76
2022/07/10 09:29:33;;;;;;;3.35;3.05;;;;;;;23.59;58.64;99006.17;1710641;83;21048;-77
2022/07/10 09:32:01;;;;;;;3.30;2.75;;;;;;;23.63;57.53;99016.66;1704667;83;21176;-78
2022/07/10 09:34:41;;;;;;;3.72;3.17;;;;;;;23.61;57.26;99004.65;1688509;84;21036;-80
2022/07/10 09:37:28;;;;;;;4.80;2.92;;;;;;;23.65;58.14;99012.39;1708744;82;22111;-77
2022/07/10 09:40:04;;;;;;;3.35;2.83;;;;;;;23.67;58.39;99010.11;1684331;84;21378;-78
2022/07/10 09:42:34;;;;;;;6.22;4.05;;;;;;;23.70;59.46;98998.41;1670456;84;21641;-75
2022/07/10 09:45:17;;;;;;;8.48;3.90;;;;;;;23.69;56.97;99001.53;1701205;82;21099;-75
2022/07/10 09:47:57;;;;;;;2.90;2.50;;;;;;;23.67;57.15;99012.05;1691302;83;21092;-76
2022/07/10 09:50:33;;;;;;;3.00;2.70;;;;;;;23.69;58.47;99005.05;1708712;83;21272;-79
2022/07/10 09:53:01;;;;;;;1.90;1.80;;;;;;;23.72;58.35;98994.75;1710380;83;21010;-79
2022/07/10 09:55:31;;;;;;;2.50;2.30;;;;;;;23.73;57.50;98994.98;1719777;82;21012;-76
2022/07/10 09:58:01;;;;;;;4.75;3.00;;;;;;;23.75;56.30;98994.03;1696705;84;21033;-77
2022/07/10 10:00:31;;;;;;;3.67;2.77;;;;;;;23.75;56.33;98980.30;1710153;83;21032;-73
2022/07/10 10:03:07;;;;;;;3.62;2.47;;;;;;;23.80;55.24;98988.84;1697365;83;22021;-81
2022/07/10 10:05:55;;;;;;;4.25;2.60;;;;;;;23.88;54.70;98987.29;1697943;83;21666;-77
2022/07/10 10:08:41;;;;;;;4.97;3.00;;;;;;;23.91;54.18;98984.42;1688457;84;21636;-75
2022/07/10 10:11:08;;;;;;;3.72;2.40;;;;;;;23.90;54.15;98989.69;1669392;86;21029;-75
2022/07/10 10:13:35;;;;;;;3.20;2.50;;;;;;;23.77;54.29;98990.94;1689821;83;21047;-76
2022/07/10 10:16:03;;;;;;;2.27;2.10;;;;;;;23.76;54.94;98992.88;1695946;83;21165;-73
2022/07/10 10:18:30;;;;;;;2.58;1.92;;;;;;;23.84;53.91;98990.52;1706965;83;21090;-73
2022/07/10 10:20:56;;;;;;;3.80;2.60;;;;;;;23.95;53.26;98990.80;1696598;84;21021;-73
2022/07/10 10:23:24;;;;;;;2.12;1.98;;;;;;;24.06;51.25;98982.81;1674033;84;21509;-74
2022/07/10 10:25:56;;;;;;;3.42;2.33;;;;;;;24.15;51.09;98990.30;1706837;83;21076;-71
2022/07/10 10:28:25;;;;;;;4.83;2.17;;;;;;;24.24;50.72;98975.23;1709770;83;21122;-72
2022/07/10 10:30:59;;;;;;;2.33;2.02;;;;;;;24.36;51.14;98978.46;1697451;84;20985;-74
2022/07/10 10:33:39;;;;;;;2.25;2.02;;;;;;;24.40;51.62;98972.46;1693838;83;21067;-74
2022/07/10 10:36:07;;;;;;;2.47;2.27;;;;;;;24.40;52.16;98979.91;1696076;84;21057;-73
2022/07/10 10:39:01;;;;;;;5.97;2.02;;;;;;;24.33;52.84;98977.78;1673619;84;36913;-73
2022/07/10 10:41:40;;;;;;;2.30;2.15;;;;;;;24.30;53.54;98981.27;1712238;82;21561;-72
2022/07/10 10:44:13;;;;;;;2.67;2.33;;;;;;;24.30;53.73;98973.02;1710281;83;21070;-74
2022/07/10 10:47:05;;;;;;;;;;;;;;;24.31;54.15;98967.74;1699961;84;21021;-74
2022/07/10 10:49:52;;;;;;;2.33;1.87;;;;;;;24.39;53.58;98967.31;1706927;84;20171;-73
2022/07/10 10:52:19;;;;;;;2.35;1.95;;;;;;;24.45;51.06;98961.19;1714278;82;21019;-73
2022/07/10 10:55:03;;;;;;;4.62;2.58;;;;;;;24.54;50.97;98952.73;1710412;83;21105;-72
2022/07/10 10:57:37;;;;;;;2.35;2.02;;;;;;;24.57;50.74;98954.75;1697355;84;21020;-70
2022/07/10 11:00:07;;;;;;;3.17;1.95;;;;;;;24.59;50.11;98962.06;1707479;83;21561;-72
2022/07/10 11:02:43;;;;;;;2.77;1.72;;;;;;;24.59;49.89;98959.31;1676469;83;21003;-71
2022/07/10 11:05:22;;;;;;;1.55;1.45;;;;;;;24.63;49.51;98962.36;1659463;85;21089;-72
2022/07/10 11:08:04;;;;;;;1.72;1.60;;;;;;;24.69;49.47;98956.00;1686537;84;21124;-73
2022/07/10 11:10:44;;;;;;;4.22;1.95;;;;;;;24.75;50.15;98958.66;1673201;84;26698;-71
2022/07/10 11:13:15;;;;;;;2.05;1.85;;;;;;;24.84;49.09;98962.59;1693484;83;21012;-71
2022/07/10 11:15:51;;;;;;;1.60;1.50;;;;;;;24.90;48.67;98952.33;1698632;82;21099;-70
2022/07/10 11:18:25;;;;;;;1.67;1.40;;;;;;;24.94;47.98;98960.06;1687891;84;21089;-73
2022/07/10 11:20:55;;;;;;;1.85;1.75;;;;;;;24.97;48.02;98962.69;1703559;83;21064;-73
2022/07/10 11:23:39;;;;;;;1.70;1.60;;;;;;;24.99;48.23;98965.28;1685343;83;21065;-72
2022/07/10 11:26:25;;;;;;;2.55;1.65;;;;;;;25.03;48.89;98988.18;1703627;84;21055;-72
2022/07/10 11:28:55;;;;;;;4.55;2.10;;;;;;;25.03;48.75;98960.66;1667365;85;21523;-70
2022/07/10 11:31:23;;;;;;;3.47;1.98;;;;;;;25.03;48.82;98964.80;1700723;84;21021;-74
2022/07/10 11:33:53;;;;;;;2.40;1.47;;;;;;;24.99;48.76;98963.90;1694574;83;21848;-72
2022/07/10 11:36:35;;;;;;;1.60;1.50;;;;;;;24.98;48.76;98949.95;1687879;84;21038;-72
2022/07/10 11:39:07;;;;;;;2.75;1.72;;;;;;;25.02;48.73;98961.02;1703060;82;21015;-71
2022/07/10 11:41:45;;;;;;;1.75;1.60;;;;;;;25.03;48.96;98943.35;1702189;84;21099;-72
2022/07/10 11:44:17;;;;;;;3.42;1.90;;;;;;;25.05;49.24;98945.95;1701607;84;21502;-74
2022/07/10 11:46:48;;;;;;;2.20;1.92;;;;;;;25.13;49.51;98958.67;1703924;84;21542;-73
2022/07/10 11:49:15;;;;;;;2.62;2.22;;;;;;;25.26;49.15;98955.19;1703466;83;20976;-74
2022/07/10 11:51:42;;;;;;;1.70;1.60;;;;;;;25.39;49.56;98951.67;1701751;83;21106;-72
2022/07/10 11:54:13;;;;;;;3.22;1.95;;;;;;;25.39;49.09;98956.61;1687255;84;21089;-72